createdAt,value
2023-02-09T00:01:58.412Z,7.50
2023-02-09T00:07:01.865Z,7.00
2023-02-09T00:12:22.452Z,6.63
2023-02-09T00:17:24.712Z,5.03
2023-02-09T00:22:29.723Z,4.77
2023-02-09T00:27:35.692Z,6.97
2023-02-09T00:32:38.919Z,5.63
2023-02-09T00:37:42.344Z,5.83
2023-02-09T00:42:44.554Z,4.67
2023-02-09T00:47:46.699Z,7.97
2023-02-09T00:52:49.063Z,6.13
2023-02-09T00:57:51.178Z,5.87
2023-02-09T01:02:53.326Z,6.90
2023-02-09T01:07:55.440Z,5.93
2023-02-09T01:13:03.811Z,6.07
2023-02-09T01:18:07.665Z,5.63
2023-02-09T01:23:10.218Z,6.53
2023-02-09T01:28:12.389Z,5.30
2023-02-09T01:33:14.595Z,7.20
2023-02-09T01:38:16.674Z,5.40
2023-02-09T01:43:18.951Z,5.13
2023-02-09T01:48:27.302Z,5.60
2023-02-09T01:53:29.528Z,5.20
2023-02-09T01:58:32.207Z,4.47
2023-02-09T02:03:34.530Z,5.10
2023-02-09T02:08:58.928Z,5.90
2023-02-09T02:14:01.126Z,5.47
2023-02-09T02:19:50.710Z,4.57
2023-02-09T02:25:23.888Z,6.55
2023-02-09T02:30:48.037Z,4.03
2023-02-09T02:35:55.530Z,6.23
2023-02-09T02:41:10.218Z,5.40
2023-02-09T02:46:31.156Z,7.10
2023-02-09T02:51:39.958Z,7.53
2023-02-09T02:57:18.607Z,3.97
2023-02-09T03:02:24.022Z,6.23
2023-02-09T03:07:26.461Z,5.10
2023-02-09T03:12:52.542Z,5.90
2023-02-09T03:18:11.108Z,5.00
2023-02-09T03:23:19.505Z,5.00
2023-02-09T03:28:31.447Z,10.93
2023-02-09T03:33:34.698Z,5.73
2023-02-09T03:38:36.926Z,6.93
2023-02-09T03:44:03.618Z,6.93
2023-02-09T03:49:05.824Z,5.53
2023-02-09T03:54:08.248Z,6.23
2023-02-09T03:59:10.718Z,7.67
2023-02-09T04:04:12.982Z,8.40
2023-02-09T04:09:15.293Z,7.27
2023-02-09T04:14:17.763Z,8.13
2023-02-09T04:19:19.906Z,8.73
2023-02-09T04:24:22.120Z,6.43
2023-02-09T04:29:24.321Z,9.07
2023-02-09T04:34:26.607Z,7.33
2023-02-09T04:39:28.980Z,7.70
2023-02-09T04:44:40.135Z,7.27
2023-02-09T04:49:42.887Z,9.90
2023-02-09T04:54:45.240Z,6.93
2023-02-09T04:59:47.404Z,6.90
2023-02-09T05:04:49.529Z,9.43
2023-02-09T05:09:51.652Z,8.47
2023-02-09T05:14:53.772Z,10.40
2023-02-09T05:19:55.948Z,8.30
2023-02-09T05:24:58.036Z,9.97
2023-02-09T05:30:00.272Z,6.87
2023-02-09T05:35:02.493Z,5.97
2023-02-09T05:40:06.327Z,8.13
2023-02-09T05:45:18.088Z,7.90
2023-02-09T05:50:20.272Z,9.03
2023-02-09T05:55:22.401Z,8.30
2023-02-09T06:00:25.360Z,7.10
2023-02-09T06:05:27.794Z,7.73
2023-02-09T06:10:29.872Z,11.77
2023-02-09T06:15:32.109Z,10.63
2023-02-09T06:20:34.213Z,9.33
2023-02-09T06:25:39.639Z,10.80
2023-02-09T06:30:41.816Z,10.67
2023-02-09T06:35:44.586Z,9.80
2023-02-09T06:40:47.737Z,9.03
2023-02-09T06:51:26.427Z,10.40
2023-02-09T06:56:28.614Z,14.17
2023-02-09T07:01:30.776Z,18.67
2023-02-09T07:06:33.127Z,15.87
2023-02-09T07:11:35.341Z,18.03
2023-02-09T07:16:37.578Z,18.80
2023-02-09T07:21:39.686Z,21.20
2023-02-09T07:26:41.950Z,22.93
2023-02-09T07:31:44.221Z,16.40
2023-02-09T07:36:47.817Z,16.10
2023-02-09T07:41:50.458Z,14.13
2023-02-09T07:46:52.730Z,18.27
2023-02-09T07:51:54.897Z,16.20
2023-02-09T07:56:57.120Z,14.17
2023-02-09T08:01:59.302Z,15.83
2023-02-09T08:07:01.501Z,15.80
2023-02-09T08:12:05.365Z,12.23
2023-02-09T08:17:28.226Z,14.43
2023-02-09T08:22:32.880Z,13.03
2023-02-09T08:27:36.542Z,16.47
2023-02-09T08:32:38.794Z,14.60
2023-02-09T08:37:40.903Z,21.57
2023-02-09T08:42:43.159Z,14.07
2023-02-09T08:47:45.359Z,12.83
2023-02-09T08:52:47.790Z,13.17
2023-02-09T08:57:49.997Z,13.90
2023-02-09T09:02:52.180Z,14.53
2023-02-09T09:07:54.399Z,9.37
2023-02-09T09:12:56.693Z,9.50
2023-02-09T09:17:58.817Z,9.73
2023-02-09T09:23:02.189Z,11.13
2023-02-09T09:28:04.376Z,11.70
2023-02-09T09:33:06.657Z,11.33
2023-02-09T09:38:08.943Z,12.53
2023-02-09T09:43:38.457Z,10.63
2023-02-09T09:48:44.422Z,12.73
2023-02-09T09:53:50.169Z,14.87
2023-02-09T09:58:52.376Z,13.20
2023-02-09T10:03:59.102Z,13.23
2023-02-09T10:09:10.334Z,11.77
2023-02-09T10:14:12.590Z,17.07
2023-02-09T10:19:20.864Z,15.30
2023-02-09T10:24:30.198Z,10.57
2023-02-09T10:29:32.343Z,13.45
2023-02-09T10:34:48.470Z,12.17
2023-02-09T10:40:06.976Z,15.27
2023-02-09T10:45:17.858Z,11.20
2023-02-09T10:50:20.253Z,10.03
2023-02-09T10:55:30.556Z,10.77
2023-02-09T11:00:37.530Z,10.60
2023-02-09T11:05:39.951Z,10.20
2023-02-09T11:11:29.097Z,10.27
2023-02-09T11:16:53.260Z,10.93
2023-02-09T11:22:10.903Z,12.23
2023-02-09T11:27:29.870Z,10.63
2023-02-09T11:32:45.395Z,11.17
2023-02-09T11:38:01.054Z,8.13
2023-02-09T11:43:25.538Z,9.77
2023-02-09T11:48:37.332Z,7.77
2023-02-09T11:53:48.096Z,11.23
2023-02-09T11:59:11.895Z,10.33
2023-02-09T12:04:18.656Z,8.63
2023-02-09T12:10:00.574Z,8.80
2023-02-09T12:15:08.904Z,9.53
2023-02-09T12:20:37.392Z,9.17
2023-02-09T12:26:01.867Z,11.93
2023-02-09T12:31:04.116Z,11.83
2023-02-09T12:36:12.606Z,6.87
2023-02-09T12:41:51.586Z,7.63
2023-02-09T12:46:56.220Z,6.60
2023-02-09T12:52:02.364Z,8.07
2023-02-09T12:57:17.066Z,9.77
2023-02-09T13:02:48.648Z,8.83
2023-02-09T13:08:07.484Z,6.27
2023-02-09T13:13:12.743Z,9.47
2023-02-09T13:18:14.826Z,9.67
2023-02-09T13:23:21.145Z,9.50
2023-02-09T13:28:23.359Z,8.27
2023-02-09T13:33:34.168Z,8.23
2023-02-09T13:38:40.997Z,8.03
2023-02-09T13:43:46.511Z,5.97
2023-02-09T13:48:48.636Z,7.80
2023-02-09T13:54:02.081Z,8.33
2023-02-09T13:59:07.155Z,7.07
2023-02-09T14:04:29.987Z,6.37
2023-02-09T14:09:41.852Z,10.83
2023-02-09T14:15:32.403Z,6.20
2023-02-09T14:20:35.164Z,9.10
2023-02-09T14:25:37.539Z,10.40
2023-02-09T14:30:50.150Z,9.87
2023-02-09T14:35:59.343Z,7.57
2023-02-09T14:41:27.416Z,9.18
2023-02-09T14:46:50.550Z,10.47
2023-02-09T14:52:05.724Z,8.53
2023-02-09T14:57:11.103Z,8.63
2023-02-09T15:02:20.592Z,13.20
2023-02-09T15:07:30.364Z,6.50
2023-02-09T15:12:33.124Z,7.40
2023-02-09T15:17:35.461Z,7.70
2023-02-09T15:22:37.826Z,10.83
2023-02-09T15:27:51.928Z,8.70
2023-02-09T15:32:54.616Z,8.43
2023-02-09T15:37:59.882Z,7.57
2023-02-09T15:43:24.122Z,8.93
2023-02-09T15:48:27.597Z,8.43
2023-02-09T15:53:31.448Z,9.27
2023-02-09T15:58:39.651Z,8.43
2023-02-09T16:03:42.610Z,8.90
2023-02-09T16:08:50.265Z,7.53
2023-02-09T16:13:54.559Z,9.37
2023-02-09T16:18:56.763Z,6.90
2023-02-09T16:24:01.571Z,7.07
2023-02-09T16:29:04.384Z,10.27
2023-02-09T16:34:07.810Z,6.07
2023-02-09T16:39:18.544Z,7.10
2023-02-09T16:44:23.778Z,8.50
2023-02-09T16:49:33.235Z,7.00
2023-02-09T16:54:41.456Z,6.20
2023-02-09T16:59:44.052Z,5.70
2023-02-09T17:05:33.324Z,9.50
2023-02-09T17:10:36.359Z,8.47
2023-02-09T17:15:47.444Z,9.77
2023-02-09T17:20:58.121Z,5.97
2023-02-09T17:26:00.486Z,4.33
2023-02-09T17:31:04.524Z,3.37
2023-02-09T17:36:27.625Z,6.23
2023-02-09T17:41:39.404Z,7.93
2023-02-09T17:46:42.860Z,6.17
2023-02-09T17:51:48.627Z,11.13
2023-02-09T17:56:51.670Z,6.67
2023-02-09T18:01:56.567Z,7.40
2023-02-09T18:06:58.774Z,7.47
2023-02-09T18:12:20.456Z,10.77
2023-02-09T18:17:22.659Z,6.83
2023-02-09T18:22:27.857Z,6.60
2023-02-09T18:27:30.065Z,11.00
2023-02-09T18:32:32.210Z,14.17
2023-02-09T18:37:40.522Z,5.47
2023-02-09T18:42:43.479Z,6.37
2023-02-09T18:47:46.808Z,6.63
2023-02-09T18:52:52.562Z,5.37
2023-02-09T18:57:58.026Z,4.60
2023-02-09T19:03:00.375Z,8.73
2023-02-09T19:08:02.766Z,5.43
2023-02-09T19:13:05.580Z,5.63
2023-02-09T19:18:07.792Z,4.53
2023-02-09T19:23:10.031Z,4.20
2023-02-09T19:28:12.695Z,4.63
2023-02-09T19:33:15.155Z,2.90
2023-02-09T19:38:17.609Z,4.17
2023-02-09T19:43:21.120Z,4.50
2023-02-09T19:48:24.016Z,4.60
2023-02-09T19:53:26.803Z,5.77
2023-02-09T19:58:29.220Z,2.23
2023-02-09T20:03:31.746Z,3.73
2023-02-09T20:08:34.014Z,4.07
2023-02-09T20:13:36.805Z,4.23
2023-02-09T20:18:40.436Z,2.10
2023-02-09T20:23:44.998Z,5.37
2023-02-09T20:28:51.158Z,4.60
2023-02-09T20:33:53.843Z,4.53
2023-02-09T20:38:56.152Z,5.30
2023-02-09T20:44:16.783Z,4.50
2023-02-09T20:49:19.329Z,3.60
2023-02-09T20:54:21.743Z,2.97
2023-02-09T20:59:24.791Z,2.80
2023-02-09T21:04:30.448Z,4.80
2023-02-09T21:09:32.673Z,2.37
2023-02-09T21:14:43.120Z,4.30
2023-02-09T21:19:46.771Z,4.27
2023-02-09T21:24:48.967Z,5.53
2023-02-09T21:29:51.250Z,5.00
2023-02-09T21:34:53.503Z,5.70
2023-02-09T21:39:56.194Z,6.00
2023-02-09T21:45:00.400Z,4.67
2023-02-09T21:50:04.734Z,7.23
2023-02-09T21:55:08.544Z,6.23
2023-02-09T22:00:14.963Z,6.47
2023-02-09T22:05:18.578Z,6.40
2023-02-09T22:10:21.258Z,5.00
2023-02-09T22:15:24.093Z,7.87
2023-02-09T22:20:36.067Z,6.13
2023-02-09T22:25:38.546Z,5.07
2023-02-09T22:30:40.828Z,7.63
2023-02-09T22:35:43.082Z,3.60
2023-02-09T22:40:45.533Z,5.73
2023-02-09T22:45:55.209Z,3.90
2023-02-09T22:50:57.381Z,4.67
2023-02-09T22:56:03.607Z,4.00
2023-02-09T23:01:06.704Z,4.67
2023-02-09T23:06:12.636Z,6.23
2023-02-09T23:11:17.466Z,6.20
2023-02-09T23:16:22.694Z,4.33
2023-02-09T23:21:28.674Z,5.43
2023-02-09T23:26:30.886Z,6.60
2023-02-09T23:31:33.436Z,7.30
2023-02-09T23:36:35.906Z,7.23
2023-02-09T23:41:38.106Z,5.13
2023-02-09T23:46:40.314Z,7.13
2023-02-09T23:51:44.465Z,10.80
2023-02-09T23:56:46.775Z,8.83
